Christine, Texas
Current Conditions -  °F | °C
As of 5:55 AM on Sunday 25 Jan 2015 (Local Time) from KPEZ Reporting Station
Clear Clear  
Wind Chill: 41°   Ceiling: Unl
Heat Index: 41°   Visibility: 10mi
Dew Point: 36°   Wind: 3mph
Humidity: 81%   Direction: 190°S
Pressure: 30.08"   Gusts: NA
Location:  28.79°N, 98.5°W
Report Text: KPEZ 251155Z AUTO 19003KT 10SM CLR 05/02 A3008 RMK AO2 T00510020 10100 20051
Loading
Personal Weather Stations






























Interactive Weather Map New forecast layout! Learn more

10-Day Weather Forecast

Advertisements
Track Severe Weather on mobile